Time;durP1;ratioP1;P1;durP2;ratioP2;P2;SDS_P1;SDS_P2;PMS_P1;PMS_P2;Temp;Humidity;BMP_temperature;BMP_pressure;BME280_temperature;BME280_humidity;BME280_pressure;Samples;Min_cycle;Max_cycle;Signal;HPM_P1;HPM_P2
2021/11/30 00:00:09;;;;;;;8.90;5.17;;;;;;;;;;4932901;29;20095;-76
2021/11/30 00:02:35;;;;;;;10.63;4.60;;;;;;;;;;4932376;29;20035;-75
2021/11/30 00:05:01;;;;;;;9.53;5.13;;;;;;;;;;4936564;29;20035;-76
2021/11/30 00:07:26;;;;;;;11.00;5.70;;;;;;;;;;4936174;29;20031;-77
2021/11/30 00:12:20;;;;;;;10.90;5.00;;;;;;;;;;4936862;29;20062;-75
2021/11/30 00:14:49;;;;;;;9.10;4.83;;;;;;;;;;4931780;29;20535;-74
2021/11/30 00:17:15;;;;;;;11.40;5.67;;;;;;;;;;4931441;29;20086;-75
2021/11/30 00:19:42;;;;;;;10.63;5.70;;;;;;;;;;4931821;29;20020;-76
2021/11/30 00:22:10;;;;;;;13.63;6.10;;;;;;;;;;4933202;29;20027;-75
2021/11/30 00:24:35;;;;;;;8.83;4.73;;;;;;;;;;4931366;29;20063;-75
2021/11/30 00:27:02;;;;;;;9.60;4.60;;;;;;;;;;4932421;29;20059;-74
2021/11/30 00:29:29;;;;;;;12.20;5.00;;;;;;;;;;4915642;29;20357;-75
2021/11/30 00:31:54;;;;;;;8.83;4.63;;;;;;;;;;4932549;29;20157;-75
2021/11/30 00:34:20;;;;;;;9.93;4.53;;;;;;;;;;4932684;29;20048;-74
2021/11/30 00:36:46;;;;;;;7.90;4.97;;;;;;;;;;4931450;29;20034;-75
2021/11/30 00:39:11;;;;;;;10.10;4.90;;;;;;;;;;4930916;29;20522;-76
2021/11/30 00:41:38;;;;;;;11.53;5.13;;;;;;;;;;4932440;29;20035;-74
2021/11/30 00:44:04;;;;;;;8.87;4.93;;;;;;;;;;4933726;29;20023;-76
2021/11/30 00:48:58;;;;;;;9.00;5.20;;;;;;;;;;4932622;29;20039;-75
2021/11/30 00:51:24;;;;;;;9.47;5.17;;;;;;;;;;4932002;29;20035;-75
2021/11/30 00:53:51;;;;;;;9.33;4.53;;;;;;;;;;4931004;29;20028;-74
2021/11/30 00:56:17;;;;;;;7.57;4.40;;;;;;;;;;4930550;29;20508;-75
2021/11/30 00:58:44;;;;;;;9.63;4.20;;;;;;;;;;4932254;29;20106;-74
2021/11/30 01:01:10;;;;;;;10.93;4.70;;;;;;;;;;4930940;29;20057;-74
2021/11/30 01:03:35;;;;;;;8.67;4.20;;;;;;;;;;4932251;29;20058;-75
2021/11/30 01:06:01;;;;;;;7.53;4.00;;;;;;;;;;4932293;29;20099;-75
2021/11/30 01:08:27;;;;;;;7.67;4.70;;;;;;;;;;4931193;29;20043;-76
2021/11/30 01:10:53;;;;;;;7.80;5.07;;;;;;;;;;4932496;29;20106;-75
2021/11/30 01:13:18;;;;;;;9.27;4.33;;;;;;;;;;4932035;29;20032;-75
2021/11/30 01:15:45;;;;;;;9.97;4.30;;;;;;;;;;4932342;29;20088;-75
2021/11/30 01:18:11;;;;;;;9.77;3.67;;;;;;;;;;4932272;29;20034;-76
2021/11/30 01:20:36;;;;;;;6.90;3.93;;;;;;;;;;4930833;29;20032;-75
2021/11/30 01:23:04;;;;;;;7.17;4.00;;;;;;;;;;4932460;29;20028;-76
2021/11/30 01:25:32;;;;;;;8.30;4.43;;;;;;;;;;4930941;29;20110;-74
2021/11/30 01:27:57;;;;;;;7.37;4.47;;;;;;;;;;4932017;29;20042;-75
2021/11/30 01:30:23;;;;;;;6.67;3.93;;;;;;;;;;4932266;29;20031;-76
2021/11/30 01:32:49;;;;;;;9.23;4.37;;;;;;;;;;4932012;29;20377;-76
2021/11/30 01:35:16;;;;;;;8.77;4.50;;;;;;;;;;4930799;29;20469;-76
2021/11/30 01:37:42;;;;;;;7.27;3.90;;;;;;;;;;4930848;29;20035;-76
2021/11/30 01:40:10;;;;;;;6.27;3.80;;;;;;;;;;4930727;29;20031;-75
2021/11/30 01:42:36;;;;;;;9.37;4.67;;;;;;;;;;4932608;29;20547;-75
2021/11/30 01:45:08;;;;;;;11.30;5.10;;;;;;;;;;4931918;29;20023;-75
2021/11/30 01:47:53;;;;;;;8.43;4.13;;;;;;;;;;4930582;29;20046;-75
2021/11/30 01:50:19;;;;;;;10.33;4.03;;;;;;;;;;4930519;29;20416;-75
2021/11/30 01:52:46;;;;;;;8.80;4.20;;;;;;;;;;4931968;29;20039;-75
2021/11/30 01:55:13;;;;;;;8.83;4.03;;;;;;;;;;4931723;29;20032;-76
2021/11/30 01:57:38;;;;;;;8.47;4.70;;;;;;;;;;4930656;29;20035;-75
2021/11/30 02:00:05;;;;;;;10.77;4.40;;;;;;;;;;4931740;29;20035;-76
2021/11/30 02:02:31;;;;;;;7.00;4.43;;;;;;;;;;4931849;29;20408;-75
2021/11/30 02:04:56;;;;;;;5.90;3.93;;;;;;;;;;4934112;29;20031;-76
2021/11/30 02:07:22;;;;;;;10.20;5.00;;;;;;;;;;4935053;29;20027;-76
2021/11/30 02:09:47;;;;;;;7.00;4.40;;;;;;;;;;4933753;29;20506;-76
2021/11/30 02:12:13;;;;;;;8.60;4.53;;;;;;;;;;4933617;29;20031;-76
2021/11/30 02:14:41;;;;;;;10.50;4.53;;;;;;;;;;4933700;29;20035;-75
2021/11/30 02:17:08;;;;;;;11.80;5.13;;;;;;;;;;4933396;29;20083;-76
2021/11/30 02:19:42;;;;;;;10.67;4.93;;;;;;;;;;4933891;29;20043;-75
2021/11/30 02:22:11;;;;;;;11.20;4.90;;;;;;;;;;4933680;29;20046;-73
2021/11/30 02:24:38;;;;;;;9.73;4.10;;;;;;;;;;4934936;29;20477;-76
2021/11/30 02:27:03;;;;;;;8.67;5.27;;;;;;;;;;4934687;29;20651;-75
2021/11/30 02:29:29;;;;;;;9.03;4.67;;;;;;;;;;4934702;29;20039;-75
2021/11/30 02:31:54;;;;;;;12.40;5.40;;;;;;;;;;4934907;29;20035;-77
2021/11/30 02:34:20;;;;;;;9.00;4.63;;;;;;;;;;4933081;29;20051;-75
2021/11/30 02:36:53;;;;;;;10.30;4.57;;;;;;;;;;4934733;29;20389;-76
2021/11/30 02:39:22;;;;;;;11.50;4.90;;;;;;;;;;4933165;29;20028;-76
2021/11/30 02:41:51;;;;;;;7.70;5.17;;;;;;;;;;4934569;29;20034;-75
2021/11/30 02:44:18;;;;;;;10.63;4.67;;;;;;;;;;4933051;29;20086;-75
2021/11/30 02:46:47;;;;;;;9.00;5.27;;;;;;;;;;4933206;29;20051;-75
2021/11/30 02:49:22;;;;;;;13.33;5.77;;;;;;;;;;4934195;29;20031;-74
2021/11/30 02:51:51;;;;;;;13.87;5.87;;;;;;;;;;4934505;29;20053;-75
2021/11/30 02:54:20;;;;;;;11.57;6.07;;;;;;;;;;4932972;29;20050;-75
2021/11/30 02:56:53;;;;;;;10.97;5.77;;;;;;;;;;4934573;29;20035;-75
2021/11/30 02:59:21;;;;;;;13.13;6.10;;;;;;;;;;4934276;29;20034;-76
2021/11/30 03:01:56;;;;;;;11.33;5.97;;;;;;;;;;4934538;29;20031;-75
2021/11/30 03:04:22;;;;;;;12.53;5.57;;;;;;;;;;4932676;29;20036;-76
2021/11/30 03:06:47;;;;;;;9.43;5.40;;;;;;;;;;4934137;29;20114;-76
2021/11/30 03:09:14;;;;;;;14.20;6.37;;;;;;;;;;4933796;29;20454;-76
2021/11/30 03:11:40;;;;;;;13.87;5.67;;;;;;;;;;4934210;29;20027;-77
2021/11/30 03:14:07;;;;;;;11.77;5.17;;;;;;;;;;4932820;29;20034;-74
2021/11/30 03:16:33;;;;;;;9.93;5.03;;;;;;;;;;4933073;29;20039;-77
2021/11/30 03:18:59;;;;;;;11.17;5.33;;;;;;;;;;4934250;29;20050;-73
2021/11/30 03:21:25;;;;;;;10.03;5.70;;;;;;;;;;4933905;29;20034;-75
2021/11/30 03:23:51;;;;;;;9.30;5.03;;;;;;;;;;4934100;29;20028;-76
2021/11/30 03:26:16;;;;;;;10.93;5.20;;;;;;;;;;4932245;29;20032;-76
2021/11/30 03:28:43;;;;;;;9.43;5.87;;;;;;;;;;4932201;29;20035;-75
2021/11/30 03:31:32;;;;;;;9.67;5.17;;;;;;;;;;4933623;29;20051;-76
2021/11/30 03:33:59;;;;;;;10.87;5.50;;;;;;;;;;4932226;29;20063;-75
2021/11/30 03:36:25;;;;;;;15.93;5.67;;;;;;;;;;4933876;29;20364;-74
2021/11/30 03:38:50;;;;;;;7.90;5.13;;;;;;;;;;4932468;29;20031;-74
2021/11/30 03:41:16;;;;;;;9.40;4.70;;;;;;;;;;4932256;29;20062;-75
2021/11/30 03:43:41;;;;;;;8.87;4.80;;;;;;;;;;4933751;29;20035;-74
2021/11/30 03:46:07;;;;;;;13.27;5.33;;;;;;;;;;4933651;29;20034;-75
2021/11/30 03:48:33;;;;;;;10.60;4.93;;;;;;;;;;4933764;29;20058;-75
2021/11/30 03:50:58;;;;;;;11.90;5.20;;;;;;;;;;4933725;29;20240;-76
2021/11/30 03:53:24;;;;;;;9.83;5.37;;;;;;;;;;4932648;29;20086;-76
2021/11/30 03:55:50;;;;;;;9.97;4.80;;;;;;;;;;4933689;29;20115;-75
2021/11/30 03:58:15;;;;;;;12.00;4.83;;;;;;;;;;4933531;29;20055;-75
2021/11/30 04:00:41;;;;;;;11.73;5.07;;;;;;;;;;4933430;29;20031;-75
2021/11/30 04:03:07;;;;;;;9.17;4.73;;;;;;;;;;4933036;29;20353;-76
2021/11/30 04:05:33;;;;;;;13.97;5.33;;;;;;;;;;4933208;29;20039;-76
2021/11/30 04:07:58;;;;;;;12.23;4.87;;;;;;;;;;4933157;29;20157;-76
2021/11/30 04:10:24;;;;;;;14.80;5.10;;;;;;;;;;4931876;29;20035;-75
2021/11/30 04:12:51;;;;;;;11.47;5.20;;;;;;;;;;4932936;29;20106;-75
2021/11/30 04:15:18;;;;;;;11.07;5.67;;;;;;;;;;4932763;29;20028;-75
2021/11/30 04:17:43;;;;;;;12.60;6.07;;;;;;;;;;4931343;29;20032;-77
2021/11/30 04:20:11;;;;;;;11.97;5.30;;;;;;;;;;4933105;29;20020;-77
2021/11/30 04:22:37;;;;;;;8.63;4.50;;;;;;;;;;4931402;29;20035;-75
2021/11/30 04:25:04;;;;;;;15.13;6.40;;;;;;;;;;4931606;29;20036;-75
2021/11/30 04:27:31;;;;;;;9.83;4.77;;;;;;;;;;4930892;29;20094;-75
2021/11/30 04:29:57;;;;;;;12.50;5.67;;;;;;;;;;4931766;29;20135;-76
2021/11/30 04:32:23;;;;;;;10.90;4.80;;;;;;;;;;4931847;29;20171;-74
2021/11/30 04:34:48;;;;;;;6.40;4.23;;;;;;;;;;4933599;29;20131;-75
2021/11/30 04:37:14;;;;;;;12.37;6.43;;;;;;;;;;4932496;29;20042;-76
2021/11/30 04:39:40;;;;;;;9.90;5.13;;;;;;;;;;4933176;29;20064;-75
2021/11/30 04:42:05;;;;;;;12.03;6.30;;;;;;;;;;4931427;29;20040;-76
2021/11/30 04:44:33;;;;;;;13.83;6.13;;;;;;;;;;4932563;29;20036;-75
2021/11/30 04:47:03;;;;;;;9.30;4.93;;;;;;;;;;4932488;29;20028;-75
2021/11/30 04:51:58;;;;;;;13.43;5.13;;;;;;;;;;4932901;29;20440;-75
2021/11/30 04:54:24;;;;;;;15.50;6.67;;;;;;;;;;4932413;29;20035;-77
2021/11/30 04:56:51;;;;;;;14.03;6.33;;;;;;;;;;4932449;29;20035;-74
2021/11/30 04:59:20;;;;;;;16.30;7.53;;;;;;;;;;4932457;29;20028;-75
2021/11/30 05:01:46;;;;;;;12.97;5.67;;;;;;;;;;4932649;29;20031;-77
2021/11/30 05:04:13;;;;;;;10.77;5.67;;;;;;;;;;4930443;29;20028;-77
2021/11/30 05:06:39;;;;;;;16.30;6.60;;;;;;;;;;4932686;29;20028;-76
2021/11/30 05:09:05;;;;;;;17.97;7.60;;;;;;;;;;4930960;29;20046;-76
2021/11/30 05:11:31;;;;;;;15.87;7.00;;;;;;;;;;4930855;29;20077;-76
2021/11/30 05:13:57;;;;;;;12.77;6.60;;;;;;;;;;4932476;29;20031;-77
2021/11/30 05:16:23;;;;;;;12.67;6.47;;;;;;;;;;4932133;29;20110;-75
2021/11/30 05:18:48;;;;;;;16.13;7.27;;;;;;;;;;4932391;29;20071;-76
2021/11/30 05:21:14;;;;;;;12.97;7.50;;;;;;;;;;4932033;29;20063;-76
2021/11/30 05:23:41;;;;;;;14.97;7.10;;;;;;;;;;4932240;29;20115;-75
2021/11/30 05:26:08;;;;;;;14.40;7.20;;;;;;;;;;4930809;29;20051;-76
2021/11/30 05:28:39;;;;;;;12.53;5.80;;;;;;;;;;4930483;29;20078;-76
2021/11/30 05:31:06;;;;;;;15.70;7.33;;;;;;;;;;4930810;29;20040;-76
2021/11/30 05:33:32;;;;;;;13.90;6.13;;;;;;;;;;4930328;29;20055;-75
2021/11/30 05:35:59;;;;;;;14.43;6.30;;;;;;;;;;4930912;29;20035;-76
2021/11/30 05:38:25;;;;;;;12.90;6.97;;;;;;;;;;4933462;29;20050;-76
2021/11/30 05:40:51;;;;;;;17.13;7.80;;;;;;;;;;4935659;29;20106;-76
2021/11/30 05:43:17;;;;;;;17.77;7.73;;;;;;;;;;4935728;29;20179;-75
2021/11/30 05:45:43;;;;;;;18.17;7.57;;;;;;;;;;4935829;29;20032;-75
2021/11/30 05:48:08;;;;;;;18.50;8.13;;;;;;;;;;4934411;29;20054;-76
2021/11/30 05:50:34;;;;;;;18.27;8.10;;;;;;;;;;4935663;29;20123;-76
2021/11/30 05:53:00;;;;;;;20.60;7.87;;;;;;;;;;4934530;29;20115;-76
2021/11/30 05:55:25;;;;;;;16.80;7.40;;;;;;;;;;4935807;29;20031;-75
2021/11/30 05:57:51;;;;;;;16.83;8.17;;;;;;;;;;4935513;29;20393;-74
2021/11/30 06:00:18;;;;;;;15.40;7.13;;;;;;;;;;4934050;29;20517;-75
2021/11/30 06:02:59;;;;;;;17.40;7.87;;;;;;;;;;4934017;29;20606;-73
2021/11/30 06:05:26;;;;;;;18.23;7.50;;;;;;;;;;4933822;29;20039;-77
2021/11/30 06:07:52;;;;;;;18.80;7.13;;;;;;;;;;4934035;29;20032;-74
2021/11/30 06:10:17;;;;;;;13.97;7.73;;;;;;;;;;4934978;29;20035;-75
2021/11/30 06:12:43;;;;;;;15.77;7.47;;;;;;;;;;4935532;29;20464;-76
2021/11/30 06:15:10;;;;;;;12.17;6.87;;;;;;;;;;4934052;29;20035;-76
2021/11/30 06:17:35;;;;;;;17.67;7.93;;;;;;;;;;4934749;29;20031;-75
2021/11/30 06:20:01;;;;;;;15.80;6.70;;;;;;;;;;4935084;29;20496;-76
2021/11/30 06:22:26;;;;;;;19.07;7.63;;;;;;;;;;4935039;29;20083;-75
2021/11/30 06:24:52;;;;;;;12.53;6.63;;;;;;;;;;4933876;29;20035;-77
2021/11/30 06:27:18;;;;;;;18.07;7.70;;;;;;;;;;4934912;29;20036;-79
2021/11/30 06:29:44;;;;;;;14.57;6.20;;;;;;;;;;4935163;29;20039;-76
2021/11/30 06:32:12;;;;;;;13.60;7.10;;;;;;;;;;4933574;29;20401;-80
2021/11/30 06:34:38;;;;;;;16.70;7.47;;;;;;;;;;4933333;29;20056;-79
2021/11/30 06:37:08;;;;;;;16.67;7.37;;;;;;;;;;4934909;29;20081;-79
2021/11/30 06:39:35;;;;;;;15.43;8.00;;;;;;;;;;4929718;29;20054;-76
2021/11/30 06:42:00;;;;;;;18.40;8.97;;;;;;;;;;4912268;29;20035;-79
2021/11/30 06:44:26;;;;;;;18.97;7.63;;;;;;;;;;4934252;29;20118;-80
2021/11/30 06:46:51;;;;;;;21.30;8.20;;;;;;;;;;4934723;29;20043;-79
2021/11/30 06:49:17;;;;;;;15.90;7.80;;;;;;;;;;4932071;29;20031;-79
2021/11/30 06:51:44;;;;;;;16.43;7.67;;;;;;;;;;4932732;29;20138;-79
2021/11/30 06:54:10;;;;;;;17.00;8.23;;;;;;;;;;4932335;29;20034;-79
2021/11/30 06:56:35;;;;;;;16.83;7.40;;;;;;;;;;4932183;29;20114;-79
2021/11/30 06:59:01;;;;;;;17.33;7.43;;;;;;;;;;4933934;29;20027;-79
2021/11/30 07:01:29;;;;;;;13.63;6.97;;;;;;;;;;4931618;29;20040;-79
2021/11/30 07:03:58;;;;;;;14.63;7.57;;;;;;;;;;4933889;29;20040;-81
2021/11/30 07:06:34;;;;;;;13.47;6.83;;;;;;;;;;4931161;29;20031;-79
2021/11/30 07:13:55;;;;;;;12.00;6.20;;;;;;;;;;4933639;29;20360;-79
2021/11/30 07:16:21;;;;;;;14.23;7.13;;;;;;;;;;4927755;29;20106;-80
2021/11/30 07:18:47;;;;;;;15.67;7.30;;;;;;;;;;4931610;29;20027;-79
2021/11/30 07:21:12;;;;;;;14.73;6.90;;;;;;;;;;4926186;29;20035;-79
2021/11/30 07:23:38;;;;;;;12.77;6.60;;;;;;;;;;4928235;29;20074;-79
2021/11/30 07:26:04;;;;;;;14.67;6.60;;;;;;;;;;4930066;29;20448;-79
2021/11/30 07:28:31;;;;;;;14.57;6.77;;;;;;;;;;4925890;29;20055;-79
2021/11/30 07:31:00;;;;;;;12.47;6.50;;;;;;;;;;4931695;29;20552;-79
2021/11/30 07:33:26;;;;;;;6.10;4.63;;;;;;;;;;4935539;29;20090;-78
2021/11/30 07:35:52;;;;;;;12.57;6.37;;;;;;;;;;4927954;29;20067;-79
2021/11/30 07:38:18;;;;;;;9.60;5.20;;;;;;;;;;4924056;29;20028;-79
2021/11/30 07:40:43;;;;;;;11.97;5.17;;;;;;;;;;4928294;29;20422;-80
2021/11/30 07:43:09;;;;;;;9.43;4.67;;;;;;;;;;4958805;28;20079;-77
2021/11/30 07:45:34;;;;;;;8.43;4.87;;;;;;;;;;4937797;29;20151;-79
2021/11/30 07:48:00;;;;;;;12.67;5.67;;;;;;;;;;4930440;29;20062;-79
2021/11/30 07:50:26;;;;;;;10.47;5.33;;;;;;;;;;4929342;29;20035;-77
2021/11/30 07:52:52;;;;;;;8.83;5.03;;;;;;;;;;4930984;29;20539;-79
2021/11/30 07:55:18;;;;;;;8.80;5.37;;;;;;;;;;4931432;29;20027;-79
2021/11/30 07:57:46;;;;;;;9.53;3.43;;;;;;;;;;4931639;29;20042;-76
2021/11/30 08:00:15;;;;;;;6.93;3.13;;;;;;;;;;4922244;29;20038;-77
2021/11/30 08:02:41;;;;;;;6.20;4.23;;;;;;;;;;4924555;29;20040;-76
2021/11/30 08:05:08;;;;;;;9.33;4.77;;;;;;;;;;4926485;29;20223;-79
2021/11/30 08:07:34;;;;;;;6.77;4.07;;;;;;;;;;4917546;29;20480;-78
2021/11/30 08:10:00;;;;;;;6.07;3.63;;;;;;;;;;4921751;29;20035;-79
2021/11/30 08:12:26;;;;;;;7.10;3.93;;;;;;;;;;4924898;29;20050;-79
2021/11/30 08:14:51;;;;;;;9.43;4.20;;;;;;;;;;4922803;29;20043;-79
2021/11/30 08:17:18;;;;;;;8.83;4.60;;;;;;;;;;4940567;28;20052;-80
2021/11/30 08:19:44;;;;;;;4.27;2.57;;;;;;;;;;4926941;29;20409;-78
2021/11/30 08:22:10;;;;;;;5.80;2.70;;;;;;;;;;4923989;29;20107;-79
2021/11/30 08:24:37;;;;;;;5.17;3.20;;;;;;;;;;4924072;29;20091;-78
2021/11/30 08:27:05;;;;;;;2.73;2.30;;;;;;;;;;4924965;29;20090;-79
2021/11/30 08:29:35;;;;;;;7.33;3.43;;;;;;;;;;4925151;29;20168;-78
2021/11/30 08:32:01;;;;;;;4.00;1.90;;;;;;;;;;4929079;29;20665;-80
2021/11/30 08:34:27;;;;;;;4.83;2.53;;;;;;;;;;4927519;29;20059;-79
2021/11/30 08:36:53;;;;;;;5.03;2.60;;;;;;;;;;4926784;29;20035;-80
2021/11/30 08:39:19;;;;;;;5.03;4.10;;;;;;;;;;4927648;29;20042;-77
2021/11/30 08:41:45;;;;;;;5.27;2.57;;;;;;;;;;4926990;28;20356;-79
2021/11/30 08:44:11;;;;;;;3.13;2.13;;;;;;;;;;4928047;29;20123;-78
2021/11/30 08:46:37;;;;;;;3.97;2.57;;;;;;;;;;4925773;29;20115;-78
2021/11/30 08:49:04;;;;;;;5.97;3.50;;;;;;;;;;4927347;29;20040;-79
2021/11/30 08:51:30;;;;;;;4.63;2.50;;;;;;;;;;4910980;29;20505;-77
2021/11/30 08:54:07;;;;;;;5.63;3.60;;;;;;;;;;4927987;29;20122;-80
2021/11/30 08:56:33;;;;;;;3.77;2.40;;;;;;;;;;4910923;29;20067;-76
2021/11/30 08:58:59;;;;;;;3.60;2.50;;;;;;;;;;4924133;29;20838;-78
2021/11/30 09:01:26;;;;;;;5.97;3.90;;;;;;;;;;4926755;28;20131;-77
2021/11/30 09:03:51;;;;;;;5.67;2.90;;;;;;;;;;4925128;29;20461;-80
2021/11/30 09:06:17;;;;;;;4.83;3.20;;;;;;;;;;4921545;29;20086;-79
2021/11/30 09:08:43;;;;;;;5.03;3.10;;;;;;;;;;4927051;29;20381;-79
2021/11/30 09:11:09;;;;;;;3.93;2.87;;;;;;;;;;4923948;29;20088;-75
2021/11/30 09:13:34;;;;;;;2.93;2.07;;;;;;;;;;4928066;29;20067;-75
2021/11/30 09:16:00;;;;;;;3.77;2.67;;;;;;;;;;4929371;29;20043;-79
2021/11/30 09:18:30;;;;;;;4.70;2.70;;;;;;;;;;4928142;29;20795;-79
2021/11/30 09:20:57;;;;;;;4.60;2.40;;;;;;;;;;4928961;29;20544;-80
2021/11/30 09:23:24;;;;;;;6.33;2.43;;;;;;;;;;4924825;29;20131;-79
2021/11/30 09:25:53;;;;;;;6.00;2.93;;;;;;;;;;4926548;29;20047;-75
2021/11/30 09:28:19;;;;;;;4.00;3.13;;;;;;;;;;4924271;29;20033;-80
2021/11/30 09:30:45;;;;;;;4.27;2.47;;;;;;;;;;4928342;29;20050;-78
2021/11/30 09:33:11;;;;;;;4.93;2.30;;;;;;;;;;4927511;29;20043;-78
2021/11/30 09:35:37;;;;;;;5.17;2.33;;;;;;;;;;4925974;29;20377;-79
2021/11/30 09:38:03;;;;;;;7.20;3.13;;;;;;;;;;4923105;29;20476;-78
2021/11/30 09:40:34;;;;;;;2.20;1.90;;;;;;;;;;4926364;29;20038;-79
2021/11/30 09:43:00;;;;;;;4.27;2.40;;;;;;;;;;4926596;29;20607;-79
2021/11/30 09:45:27;;;;;;;2.90;2.50;;;;;;;;;;4926800;29;20047;-80
2021/11/30 09:47:53;;;;;;;3.03;2.73;;;;;;;;;;4924286;29;20289;-80
2021/11/30 09:50:21;;;;;;;6.27;2.13;;;;;;;;;;4925649;29;20111;-80
2021/11/30 09:52:53;;;;;;;2.50;1.63;;;;;;;;;;4926060;29;20036;-78
2021/11/30 09:55:22;;;;;;;2.20;1.92;;;;;;;;;;4926375;29;20094;-78
2021/11/30 09:57:52;;;;;;;3.30;2.07;;;;;;;;;;4926236;29;20147;-79
2021/11/30 10:00:20;;;;;;;2.87;2.13;;;;;;;;;;4923915;29;20042;-78
2021/11/30 10:02:47;;;;;;;3.67;1.27;;;;;;;;;;4912839;29;20130;-78
2021/11/30 10:05:16;;;;;;;2.03;1.23;;;;;;;;;;4925183;29;20758;-78
2021/11/30 10:07:45;;;;;;;1.93;1.67;;;;;;;;;;4922669;29;20074;-77
2021/11/30 10:10:22;;;;;;;1.87;1.30;;;;;;;;;;4928140;29;20036;-78
2021/11/30 10:13:09;;;;;;;2.10;1.47;;;;;;;;;;4911465;29;20520;-80
2021/11/30 10:15:49;;;;;;;4.40;1.30;;;;;;;;;;4929435;29;20035;-79
2021/11/30 10:18:23;;;;;;;3.23;1.43;;;;;;;;;;4924502;29;20123;-78
2021/11/30 10:20:52;;;;;;;1.80;1.20;;;;;;;;;;4922586;29;20047;-78
2021/11/30 10:23:18;;;;;;;1.30;1.20;;;;;;;;;;4926061;29;20023;-79
2021/11/30 10:25:46;;;;;;;1.80;1.60;;;;;;;;;;4910588;29;20590;-79
2021/11/30 10:28:16;;;;;;;5.03;1.60;;;;;;;;;;4917802;29;20027;-79
2021/11/30 10:30:48;;;;;;;1.20;1.13;;;;;;;;;;4924645;29;20193;-79
2021/11/30 10:33:18;;;;;;;;;;;;;;;;;;4927539;29;20047;-74
2021/11/30 10:35:45;;;;;;;1.10;1.00;;;;;;;;;;4925041;29;19986;-79
2021/11/30 10:38:11;;;;;;;1.20;0.97;;;;;;;;;;4927105;29;20042;-78
2021/11/30 10:40:39;;;;;;;2.03;0.97;;;;;;;;;;4924259;29;20047;-78
2021/11/30 10:43:08;;;;;;;1.00;0.90;;;;;;;;;;4924650;29;20074;-79
2021/11/30 10:45:49;;;;;;;1.40;0.97;;;;;;;;;;4940515;29;20582;-80
2021/11/30 10:48:22;;;;;;;0.70;0.70;;;;;;;;;;4922639;29;20111;-79
2021/11/30 10:50:54;;;;;;;1.17;0.80;;;;;;;;;;4924234;29;20034;-79
2021/11/30 10:53:28;;;;;;;0.77;0.75;;;;;;;;;;4926765;29;20044;-78
2021/11/30 10:55:56;;;;;;;1.17;0.63;;;;;;;;;;4926115;29;20039;-78
2021/11/30 10:58:28;;;;;;;1.83;1.10;;;;;;;;;;4926985;29;20038;-79
2021/11/30 11:00:55;;;;;;;;;;;;;;;;;;4927283;29;20027;-78
2021/11/30 11:03:22;;;;;;;0.80;0.77;;;;;;;;;;4925708;29;20935;-80
2021/11/30 11:08:45;;;;;;;1.07;1.00;;;;;;;;;;4929866;29;20042;-80
2021/11/30 11:11:17;;;;;;;1.43;0.90;;;;;;;;;;4926920;29;20027;-79
2021/11/30 11:13:43;;;;;;;3.55;1.35;;;;;;;;;;4924598;29;20040;-78
2021/11/30 11:16:25;;;;;;;2.30;0.97;;;;;;;;;;4922558;29;20459;-77
2021/11/30 11:18:54;;;;;;;1.47;0.90;;;;;;;;;;4921274;29;20026;-79
2021/11/30 11:21:37;;;;;;;0.70;0.70;;;;;;;;;;4917824;29;20054;-79
2021/11/30 11:24:25;;;;;;;1.10;1.00;;;;;;;;;;4924394;29;20050;-80
2021/11/30 11:26:57;;;;;;;4.00;0.87;;;;;;;;;;4924808;29;20028;-79
2021/11/30 11:29:28;;;;;;;1.67;1.20;;;;;;;;;;4926153;29;20095;-79
2021/11/30 11:32:00;;;;;;;1.60;1.10;;;;;;;;;;4920720;29;20039;-80
2021/11/30 11:34:29;;;;;;;1.17;1.05;;;;;;;;;;4923978;29;20071;-80
2021/11/30 11:36:57;;;;;;;1.70;1.23;;;;;;;;;;4924167;29;20048;-80
2021/11/30 11:39:25;;;;;;;3.27;1.57;;;;;;;;;;4924891;29;20059;-79
2021/11/30 11:42:09;;;;;;;1.77;1.67;;;;;;;;;;4926895;29;20044;-78
2021/11/30 11:44:35;;;;;;;1.50;0.90;;;;;;;;;;4912945;29;20058;-77
2021/11/30 11:47:03;;;;;;;3.03;1.23;;;;;;;;;;4923222;29;20036;-80
2021/11/30 11:49:43;;;;;;;1.10;0.67;;;;;;;;;;4925989;29;20351;-80
2021/11/30 11:52:41;;;;;;;1.50;1.13;;;;;;;;;;4925402;29;20089;-79
2021/11/30 11:55:16;;;;;;;1.60;0.97;;;;;;;;;;4930610;29;20919;-80
2021/11/30 11:58:03;;;;;;;5.40;1.33;;;;;;;;;;4918271;29;20968;-76
2021/11/30 12:00:34;;;;;;;0.80;0.80;;;;;;;;;;4909638;29;20448;-78
2021/11/30 12:03:03;;;;;;;0.80;0.80;;;;;;;;;;4926804;29;20043;-78
2021/11/30 12:05:56;;;;;;;3.23;0.93;;;;;;;;;;4924848;29;20039;-79
2021/11/30 12:08:34;;;;;;;1.33;0.67;;;;;;;;;;4922950;29;20027;-79
2021/11/30 12:11:01;;;;;;;1.17;1.17;;;;;;;;;;4923436;29;20043;-81
2021/11/30 12:13:30;;;;;;;0.83;0.83;;;;;;;;;;4924341;29;20044;-79
2021/11/30 12:16:06;;;;;;;1.13;0.90;;;;;;;;;;4938823;28;20043;-79
2021/11/30 12:18:45;;;;;;;1.60;0.90;;;;;;;;;;4924301;29;20632;-79
2021/11/30 12:21:25;;;;;;;2.57;1.13;;;;;;;;;;4922236;29;20082;-78
2021/11/30 12:23:57;;;;;;;1.33;0.80;;;;;;;;;;4921262;29;20540;-78
2021/11/30 12:26:35;;;;;;;2.38;1.10;;;;;;;;;;4921548;29;20044;-80
2021/11/30 12:29:20;;;;;;;1.60;0.73;;;;;;;;;;4922563;29;20141;-80
2021/11/30 12:31:48;;;;;;;1.43;1.03;;;;;;;;;;4923849;29;20027;-77
2021/11/30 12:34:35;;;;;;;2.03;0.90;;;;;;;;;;4925487;29;20626;-79
2021/11/30 12:37:06;;;;;;;1.50;1.10;;;;;;;;;;4918460;29;20055;-80
2021/11/30 12:39:54;;;;;;;1.77;0.75;;;;;;;;;;4923379;29;20083;-78
2021/11/30 12:42:20;;;;;;;1.47;1.00;;;;;;;;;;4919233;29;20032;-77
2021/11/30 12:44:46;;;;;;;1.20;0.80;;;;;;;;;;4923735;29;20115;-79
2021/11/30 12:47:31;;;;;;;1.00;0.90;;;;;;;;;;4922794;29;20587;-75
2021/11/30 12:49:57;;;;;;;0.70;0.70;;;;;;;;;;4924525;29;20590;-79
2021/11/30 12:52:38;;;;;;;0.93;0.90;;;;;;;;;;4919453;29;20465;-81
2021/11/30 12:55:07;;;;;;;3.27;1.50;;;;;;;;;;4924425;29;20046;-75
2021/11/30 12:57:36;;;;;;;6.27;1.20;;;;;;;;;;4918835;29;20281;-77
2021/11/30 13:00:25;;;;;;;0.80;0.60;;;;;;;;;;4923903;29;20028;-80
2021/11/30 13:02:54;;;;;;;1.10;1.00;;;;;;;;;;4920339;29;20039;-79
2021/11/30 13:05:23;;;;;;;1.30;1.00;;;;;;;;;;4905867;29;20032;-79
2021/11/30 13:07:53;;;;;;;1.00;0.90;;;;;;;;;;4918701;29;20024;-78
2021/11/30 13:10:37;;;;;;;3.70;1.67;;;;;;;;;;4923782;29;20036;-77
2021/11/30 13:13:24;;;;;;;1.17;0.80;;;;;;;;;;4921409;29;20023;-79
2021/11/30 13:15:54;;;;;;;1.37;0.77;;;;;;;;;;4917230;29;20464;-77
2021/11/30 13:18:21;;;;;;;1.50;0.80;;;;;;;;;;4917976;29;20058;-75
2021/11/30 13:20:48;;;;;;;0.83;0.77;;;;;;;;;;4927866;29;20507;-78
2021/11/30 13:23:15;;;;;;;6.73;2.00;;;;;;;;;;4929791;29;20111;-77
2021/11/30 13:25:44;;;;;;;0.77;0.77;;;;;;;;;;4921410;29;20040;-79
2021/11/30 13:28:18;;;;;;;7.63;0.90;;;;;;;;;;4917362;29;20036;-79
2021/11/30 13:30:47;;;;;;;1.07;0.70;;;;;;;;;;4917659;29;20040;-78
2021/11/30 13:33:32;;;;;;;2.63;1.03;;;;;;;;;;4916660;29;20103;-78
2021/11/30 13:36:02;;;;;;;5.20;0.80;;;;;;;;;;4919838;29;20232;-79
2021/11/30 13:38:33;;;;;;;2.53;0.97;;;;;;;;;;4914152;29;20059;-79
2021/11/30 13:41:00;;;;;;;2.40;0.90;;;;;;;;;;4916391;29;20161;-77
2021/11/30 13:43:32;;;;;;;2.50;0.97;;;;;;;;;;4915966;29;20062;-78
2021/11/30 13:46:09;;;;;;;2.67;1.35;;;;;;;;;;4915423;29;20032;-79
2021/11/30 13:48:39;;;;;;;2.17;0.93;;;;;;;;;;4917630;29;20036;-78
2021/11/30 13:51:14;;;;;;;1.77;1.03;;;;;;;;;;4918809;29;20148;-79
2021/11/30 13:53:48;;;;;;;0.77;0.50;;;;;;;;;;4918049;29;20032;-78
2021/11/30 13:56:25;;;;;;;0.93;0.73;;;;;;;;;;4918289;29;20445;-77
2021/11/30 14:04:10;;;;;;;2.53;1.30;;;;;;;;;;4921086;29;20093;-79
2021/11/30 14:06:36;;;;;;;1.50;0.90;;;;;;;;;;4918577;29;20027;-78
2021/11/30 14:09:13;;;;;;;2.17;1.17;;;;;;;;;;4923590;29;20577;-79
2021/11/30 14:11:46;;;;;;;2.80;0.97;;;;;;;;;;4922681;29;20031;-79
2021/11/30 14:14:15;;;;;;;4.77;1.00;;;;;;;;;;4925158;29;20038;-77
2021/11/30 14:16:53;;;;;;;2.57;0.97;;;;;;;;;;4921699;29;20047;-77
2021/11/30 14:19:21;;;;;;;1.97;1.10;;;;;;;;;;4922352;29;20038;-77
2021/11/30 14:22:08;;;;;;;1.10;1.00;;;;;;;;;;4924065;29;20039;-78
2021/11/30 14:24:59;;;;;;;0.90;0.60;;;;;;;;;;4922104;29;20027;-80
2021/11/30 14:27:37;;;;;;;2.67;0.90;;;;;;;;;;4925646;29;20122;-79
2021/11/30 14:30:13;;;;;;;8.17;1.77;;;;;;;;;;4923429;29;20508;-79
2021/11/30 14:32:40;;;;;;;1.50;1.00;;;;;;;;;;4925111;29;20028;-78
2021/11/30 14:35:12;;;;;;;0.93;0.93;;;;;;;;;;4921684;29;20340;-77
2021/11/30 14:37:54;;;;;;;1.23;1.08;;;;;;;;;;4919694;29;20102;-79
2021/11/30 14:40:27;;;;;;;2.28;1.23;;;;;;;;;;4923977;29;20035;-76
2021/11/30 14:43:05;;;;;;;1.20;0.70;;;;;;;;;;4921055;29;20366;-79
2021/11/30 14:45:45;;;;;;;1.17;0.97;;;;;;;;;;4923801;29;20047;-80
2021/11/30 14:48:12;;;;;;;0.90;0.90;;;;;;;;;;4922770;29;20034;-80
2021/11/30 14:50:45;;;;;;;1.40;0.93;;;;;;;;;;4922252;29;20027;-78
2021/11/30 14:53:21;;;;;;;1.27;0.63;;;;;;;;;;4925286;29;20028;-78
2021/11/30 14:55:54;;;;;;;0.60;0.60;;;;;;;;;;4925052;29;20032;-78
2021/11/30 14:58:32;;;;;;;0.67;0.67;;;;;;;;;;4924691;29;20024;-80
2021/11/30 15:01:16;;;;;;;1.40;0.87;;;;;;;;;;4920706;29;20067;-79
2021/11/30 15:03:48;;;;;;;0.60;0.60;;;;;;;;;;4924226;29;20032;-78
2021/11/30 15:06:20;;;;;;;0.70;0.60;;;;;;;;;;4922716;29;20039;-79
2021/11/30 15:08:54;;;;;;;4.60;0.90;;;;;;;;;;4925338;29;20043;-79